Time;durP1;ratioP1;P1;durP2;ratioP2;P2;SDS_P1;SDS_P2;PMS_P1;PMS_P2;Temp;Humidity;BMP_temperature;BMP_pressure;BME280_temperature;BME280_humidity;BME280_pressure;Samples;Min_cycle;Max_cycle;Signal;HPM_P1;HPM_P2
2023/07/28 00:02:18;;;;;;;2.30;2.20;;;15.70;99.90;;;;;;4991235;28;20204;-56
2023/07/28 00:04:45;;;;;;;2.20;2.10;;;15.60;99.90;;;;;;4991066;28;20321;-56
2023/07/28 00:07:12;;;;;;;2.40;2.30;;;15.60;99.90;;;;;;4991725;28;20633;-57
2023/07/28 00:09:39;;;;;;;2.13;2.00;;;15.50;99.90;;;;;;4993558;28;20262;-56
2023/07/28 00:12:06;;;;;;;3.13;2.93;;;15.50;99.90;;;;;;4991744;28;20314;-56
2023/07/28 00:14:33;;;;;;;2.47;2.37;;;15.50;99.90;;;;;;4992502;28;20259;-56
2023/07/28 00:17:00;;;;;;;2.23;2.13;;;15.40;99.90;;;;;;4991606;28;20659;-57
2023/07/28 00:19:28;;;;;;;2.40;2.30;;;15.40;99.90;;;;;;4992034;28;20315;-56
2023/07/28 00:21:56;;;;;;;2.00;1.90;;;15.30;99.90;;;;;;4992495;28;20262;-56
2023/07/28 00:24:23;;;;;;;2.73;2.53;;;15.40;99.90;;;;;;4988439;28;20227;-55
2023/07/28 00:26:50;;;;;;;2.37;2.27;;;15.30;99.90;;;;;;4992862;28;20235;-56
2023/07/28 00:29:17;;;;;;;2.63;2.53;;;15.30;99.90;;;;;;4990484;28;20200;-56
2023/07/28 00:31:44;;;;;;;2.40;2.00;;;15.30;99.90;;;;;;4990765;28;20271;-56
2023/07/28 00:34:11;;;;;;;3.47;2.37;;;15.30;99.90;;;;;;4991517;28;20255;-56
2023/07/28 00:36:40;;;;;;;3.00;2.70;;;15.30;99.90;;;;;;4992816;28;20228;-56
2023/07/28 00:39:07;;;;;;;5.13;2.43;;;15.30;99.90;;;;;;4985660;28;20200;-57
2023/07/28 00:41:34;;;;;;;2.33;2.17;;;15.20;99.90;;;;;;4992140;28;20200;-56
2023/07/28 00:44:01;;;;;;;2.87;2.10;;;15.20;99.90;;;;;;4987883;28;20228;-57
2023/07/28 00:46:28;;;;;;;3.57;3.30;;;15.20;99.90;;;;;;4990815;28;20250;-56
2023/07/28 00:48:55;;;;;;;3.70;2.27;;;15.10;99.90;;;;;;4988610;28;20204;-56
2023/07/28 00:51:22;;;;;;;1.97;1.87;;;15.10;99.90;;;;;;4991455;28;20204;-56
2023/07/28 00:53:52;;;;;;;2.33;2.23;;;15.20;99.90;;;;;;4991488;28;20228;-57
2023/07/28 00:56:21;;;;;;;1.97;1.87;;;15.20;99.90;;;;;;4988585;28;20200;-57
2023/07/28 00:58:48;;;;;;;2.87;2.60;;;15.20;99.90;;;;;;4992621;28;20204;-56
2023/07/28 01:01:15;;;;;;;3.00;2.00;;;15.20;99.90;;;;;;4991874;28;20263;-56
2023/07/28 01:03:42;;;;;;;2.87;2.67;;;15.20;99.90;;;;;;4990038;28;20203;-57
2023/07/28 01:06:19;;;;;;;2.50;2.30;;;15.20;99.90;;;;;;4981774;28;20569;-55
2023/07/28 01:08:56;;;;;;;1.90;1.73;;;15.20;99.90;;;;;;4992222;28;20250;-55
2023/07/28 01:11:23;;;;;;;3.77;1.83;;;15.30;99.90;;;;;;4992254;28;20265;-56
2023/07/28 01:13:50;;;;;;;1.77;1.60;;;15.30;99.90;;;;;;4990520;28;20259;-57
2023/07/28 01:16:17;;;;;;;1.80;1.70;;;15.30;99.90;;;;;;4991164;28;20736;-56
2023/07/28 01:18:44;;;;;;;2.17;1.90;;;15.40;99.90;;;;;;4983912;28;20211;-57
2023/07/28 01:21:21;;;;;;;1.87;1.77;;;15.50;99.90;;;;;;4991327;28;20239;-56
2023/07/28 01:23:59;;;;;;;2.73;2.30;;;15.50;99.90;;;;;;4991128;28;20261;-56
2023/07/28 01:26:34;;;;;;;2.60;2.40;;;15.60;99.90;;;;;;4990666;28;20211;-55
2023/07/28 01:29:01;;;;;;;2.50;2.40;;;15.60;99.90;;;;;;4991922;28;20200;-56
2023/07/28 01:31:28;;;;;;;2.47;2.33;;;15.60;99.90;;;;;;4991937;28;20580;-56
2023/07/28 01:33:55;;;;;;;2.30;2.13;;;15.60;99.90;;;;;;4991438;28;20223;-56
2023/07/28 01:36:22;;;;;;;3.67;2.50;;;15.60;99.90;;;;;;4989088;28;20266;-56
2023/07/28 01:38:49;;;;;;;4.00;2.77;;;15.60;99.90;;;;;;4990148;28;20258;-56
2023/07/28 01:41:16;;;;;;;2.30;2.10;;;15.50;99.90;;;;;;4991690;28;20207;-56
2023/07/28 01:43:45;;;;;;;4.00;2.63;;;15.60;99.90;;;;;;4991516;28;20207;-56
2023/07/28 01:46:11;;;;;;;2.83;1.80;;;15.60;99.90;;;;;;4989327;28;20288;-57
2023/07/28 01:48:38;;;;;;;3.03;1.90;;;15.70;99.90;;;;;;4991706;28;20207;-56
2023/07/28 01:51:05;;;;;;;1.40;1.30;;;15.70;99.90;;;;;;4989595;28;20199;-58
2023/07/28 01:53:32;;;;;;;1.73;1.63;;;15.80;99.90;;;;;;4990748;28;20255;-55
2023/07/28 01:56:00;;;;;;;1.50;1.40;;;15.80;99.90;;;;;;4991353;28;20242;-56
2023/07/28 01:58:27;;;;;;;1.77;1.67;;;15.90;99.90;;;;;;4989922;28;20227;-56
2023/07/28 02:00:55;;;;;;;4.10;2.30;;;15.90;99.90;;;;;;4991731;28;20670;-56
2023/07/28 02:03:22;;;;;;;1.60;1.57;;;16.10;99.90;;;;;;4990004;28;20200;-56
2023/07/28 02:05:49;;;;;;;1.73;1.63;;;16.20;99.90;;;;;;4991076;28;20208;-56
2023/07/28 02:08:16;;;;;;;2.10;2.00;;;16.30;99.90;;;;;;4990076;28;20246;-56
2023/07/28 02:10:45;;;;;;;2.00;1.90;;;16.30;99.90;;;;;;4991736;28;20204;-55
2023/07/28 02:13:12;;;;;;;1.70;1.60;;;16.40;99.90;;;;;;4987818;28;20200;-55
2023/07/28 02:15:38;;;;;;;3.07;1.83;;;16.50;99.90;;;;;;4990914;28;20728;-57
2023/07/28 02:18:07;;;;;;;2.30;1.77;;;16.70;99.90;;;;;;4989535;28;20219;-55
2023/07/28 02:20:35;;;;;;;2.17;2.03;;;16.80;99.90;;;;;;4987354;28;20254;-56
2023/07/28 02:23:02;;;;;;;2.30;2.10;;;16.90;99.90;;;;;;4991310;28;20802;-55
2023/07/28 02:25:29;;;;;;;2.20;2.03;;;17.00;99.90;;;;;;4994044;28;20208;-56
2023/07/28 02:27:56;;;;;;;1.53;1.47;;;17.10;99.90;;;;;;4997597;28;20234;-56
2023/07/28 02:30:23;;;;;;;3.53;2.27;;;17.00;99.90;;;;;;4998089;28;20261;-57
2023/07/28 02:32:50;;;;;;;2.03;1.70;;;17.00;99.90;;;;;;4996666;28;20740;-56
2023/07/28 02:35:18;;;;;;;1.17;1.17;;;17.00;99.90;;;;;;4995795;28;20263;-57
2023/07/28 02:37:49;;;;;;;1.87;1.77;;;16.50;99.90;;;;;;4994194;28;20220;-56
2023/07/28 02:40:16;;;;;;;1.60;1.50;;;17.00;99.90;;;;;;4997904;28;20267;-56
2023/07/28 02:42:42;;;;;;;1.63;1.53;;;17.00;99.90;;;;;;4998420;28;20231;-56
2023/07/28 02:45:10;;;;;;;3.93;2.10;;;17.00;99.90;;;;;;4996874;28;20200;-57
2023/07/28 02:47:37;;;;;;;2.93;1.77;;;16.90;99.90;;;;;;4997038;28;20255;-56
2023/07/28 02:50:05;;;;;;;1.50;1.50;;;16.90;99.90;;;;;;4996502;28;20199;-56
2023/07/28 02:52:33;;;;;;;1.90;1.83;;;16.90;99.90;;;;;;4997180;28;20297;-56
2023/07/28 02:55:00;;;;;;;2.13;1.83;;;17.10;99.90;;;;;;4996583;28;20286;-57
2023/07/28 02:57:27;;;;;;;2.63;1.93;;;17.10;99.90;;;;;;4996034;28;20693;-56
2023/07/28 02:59:54;;;;;;;2.53;2.33;;;17.20;99.90;;;;;;4996612;28;20262;-57
2023/07/28 03:02:21;;;;;;;1.77;1.67;;;17.20;99.90;;;;;;4993489;28;20235;-56
2023/07/28 03:04:48;;;;;;;1.77;1.67;;;17.30;99.90;;;;;;4997152;28;20212;-56
2023/07/28 03:07:15;;;;;;;1.60;1.50;;;17.30;99.90;;;;;;4996310;28;20223;-56
2023/07/28 03:09:43;;;;;;;1.60;1.50;;;17.30;99.90;;;;;;4996986;28;20208;-56
2023/07/28 03:12:10;;;;;;;2.57;2.40;;;17.40;99.90;;;;;;4989950;28;20223;-57
2023/07/28 03:14:37;;;;;;;1.63;1.53;;;17.40;99.90;;;;;;4987595;28;20629;-56
2023/07/28 03:17:05;;;;;;;1.90;1.80;;;17.40;99.90;;;;;;4996229;28;20219;-56
2023/07/28 03:19:31;;;;;;;2.30;1.97;;;17.40;99.90;;;;;;4998258;28;20200;-56
2023/07/28 03:21:58;;;;;;;3.00;1.77;;;17.50;99.90;;;;;;4997362;28;20207;-56
2023/07/28 03:24:25;;;;;;;1.50;1.40;;;17.50;99.90;;;;;;4995434;28;20200;-56
2023/07/28 03:26:53;;;;;;;2.30;1.97;;;17.50;99.90;;;;;;4993730;28;20258;-56
2023/07/28 03:29:21;;;;;;;1.50;1.40;;;17.60;99.90;;;;;;4996191;28;20258;-56
2023/07/28 03:31:47;;;;;;;3.63;1.13;;;17.60;99.90;;;;;;4997219;28;20623;-56
2023/07/28 03:34:14;;;;;;;1.70;1.60;;;17.60;99.90;;;;;;4997136;28;20255;-56
2023/07/28 03:36:41;;;;;;;1.80;1.70;;;17.60;99.90;;;;;;4992166;28;20260;-56
2023/07/28 03:39:08;;;;;;;1.77;1.40;;;17.60;99.90;;;;;;4990372;28;20209;-56
2023/07/28 03:41:35;;;;;;;1.67;1.57;;;17.60;99.90;;;;;;4994226;28;20614;-57
2023/07/28 03:44:04;;;;;;;1.60;1.50;;;17.50;99.90;;;;;;4993863;28;20266;-56
2023/07/28 03:46:30;;;;;;;2.03;1.93;;;17.50;99.90;;;;;;4991856;28;20204;-56
2023/07/28 03:48:59;;;;;;;2.30;2.20;;;17.40;99.90;;;;;;4992025;28;20776;-57
2023/07/28 03:51:26;;;;;;;2.03;1.27;;;17.20;99.90;;;;;;4991421;28;20207;-55
2023/07/28 03:53:53;;;;;;;1.43;1.30;;;17.60;99.90;;;;;;4993351;28;20216;-55
2023/07/28 03:56:20;;;;;;;1.30;1.30;;;17.60;99.90;;;;;;4993433;28;20216;-55
2023/07/28 03:58:47;;;;;;;2.83;1.47;;;17.50;99.90;;;;;;4992122;28;20223;-56
2023/07/28 04:01:15;;;;;;;2.00;1.90;;;17.50;99.90;;;;;;4991418;28;20627;-56
2023/07/28 04:03:42;;;;;;;2.00;1.77;;;17.50;99.90;;;;;;4992764;28;20248;-56
2023/07/28 04:06:11;;;;;;;1.93;1.83;;;17.50;99.90;;;;;;4992369;28;20200;-55
2023/07/28 04:08:38;;;;;;;2.27;2.07;;;17.50;99.90;;;;;;4991315;28;20206;-56
2023/07/28 04:11:05;;;;;;;1.57;1.43;;;17.50;99.90;;;;;;4994717;28;20212;-56
2023/07/28 04:13:32;;;;;;;1.80;1.70;;;17.50;99.90;;;;;;4992522;28;20659;-56
2023/07/28 04:15:59;;;;;;;2.00;1.90;;;17.50;99.90;;;;;;4993472;28;20251;-56
2023/07/28 04:18:28;;;;;;;1.80;1.70;;;17.40;99.90;;;;;;4993612;28;20235;-56
2023/07/28 04:20:55;;;;;;;1.70;1.43;;;17.30;99.90;;;;;;4994338;28;20208;-56
2023/07/28 04:23:22;;;;;;;1.30;1.20;;;17.30;99.90;;;;;;4994050;28;20752;-56
2023/07/28 04:25:49;;;;;;;1.57;1.53;;;17.20;99.90;;;;;;4991818;28;20644;-56
2023/07/28 04:28:15;;;;;;;3.37;2.07;;;17.20;99.90;;;;;;4992020;28;20243;-56
2023/07/28 04:30:42;;;;;;;2.23;2.00;;;17.20;99.90;;;;;;4994481;28;20254;-56
2023/07/28 04:33:09;;;;;;;5.33;3.87;;;17.20;99.90;;;;;;4992655;28;20258;-56
2023/07/28 04:35:38;;;;;;;5.77;4.40;;;17.20;99.90;;;;;;4987960;28;20715;-56
2023/07/28 04:38:05;;;;;;;3.13;2.83;;;17.20;99.90;;;;;;4991854;28;20220;-56
2023/07/28 04:40:31;;;;;;;3.90;2.97;;;17.20;99.90;;;;;;4991848;28;20270;-56
2023/07/28 04:42:58;;;;;;;5.20;2.50;;;17.20;99.90;;;;;;4990215;28;20205;-56
2023/07/28 04:45:25;;;;;;;5.13;4.63;;;17.20;99.90;;;;;;4993040;28;20641;-57
2023/07/28 04:47:52;;;;;;;4.77;4.23;;;17.10;99.90;;;;;;4993229;28;20219;-55
2023/07/28 04:50:19;;;;;;;9.53;5.00;;;17.00;99.90;;;;;;4993097;28;20199;-55
2023/07/28 04:52:51;;;;;;;4.73;4.33;;;17.10;99.90;;;;;;4992821;28;20199;-56
2023/07/28 04:55:18;;;;;;;5.30;4.80;;;17.10;99.90;;;;;;4993099;28;20717;-57
2023/07/28 04:57:45;;;;;;;4.83;3.77;;;17.10;99.90;;;;;;4992831;28;20223;-56
2023/07/28 05:00:13;;;;;;;4.80;3.10;;;17.00;99.90;;;;;;4992879;28;20254;-56
2023/07/28 05:02:40;;;;;;;3.10;2.90;;;17.00;99.90;;;;;;4989862;28;20196;-56
2023/07/28 05:05:07;;;;;;;3.93;3.63;;;17.00;99.90;;;;;;4991858;28;20211;-56
2023/07/28 05:07:34;;;;;;;3.33;3.13;;;17.10;99.90;;;;;;4992869;28;20219;-56
2023/07/28 05:10:03;;;;;;;2.97;2.77;;;17.10;99.90;;;;;;4989303;28;20250;-55
2023/07/28 05:12:31;;;;;;;2.50;2.30;;;17.10;99.90;;;;;;4992474;28;20609;-56
2023/07/28 05:14:58;;;;;;;2.43;2.23;;;17.20;99.90;;;;;;4987697;28;20219;-56
2023/07/28 05:17:25;;;;;;;3.70;3.40;;;17.30;99.90;;;;;;4984785;28;20224;-56
2023/07/28 05:19:52;;;;;;;2.60;2.50;;;17.80;99.90;;;;;;4992782;28;20200;-55
2023/07/28 05:22:19;;;;;;;3.07;2.57;;;18.20;99.90;;;;;;4992637;28;20200;-56
2023/07/28 05:24:46;;;;;;;2.50;2.30;;;18.50;99.90;;;;;;4988820;28;20243;-55
2023/07/28 05:27:16;;;;;;;3.23;3.03;;;18.60;99.90;;;;;;4989913;28;20733;-55
2023/07/28 05:29:43;;;;;;;2.80;2.70;;;18.70;99.90;;;;;;4992372;28;20196;-57
2023/07/28 05:32:10;;;;;;;2.30;2.20;;;18.70;99.90;;;;;;4992459;28;20266;-56
2023/07/28 05:34:37;;;;;;;2.03;1.93;;;18.70;99.90;;;;;;4985352;28;20625;-56
2023/07/28 05:37:04;;;;;;;2.20;1.90;;;18.70;99.90;;;;;;4992453;28;20262;-56
2023/07/28 05:39:31;;;;;;;2.03;1.83;;;18.60;99.90;;;;;;4992407;28;20196;-57
2023/07/28 05:41:58;;;;;;;2.20;2.10;;;18.50;99.90;;;;;;4992419;28;20621;-56
2023/07/28 05:44:26;;;;;;;2.10;2.00;;;18.40;99.90;;;;;;4987987;28;20656;-55
2023/07/28 05:46:53;;;;;;;5.80;5.17;;;18.40;99.90;;;;;;4992340;28;20227;-56
2023/07/28 05:49:20;;;;;;;4.77;4.37;;;18.30;99.90;;;;;;4991238;28;20208;-56
2023/07/28 05:51:47;;;;;;;4.90;4.50;;;18.20;99.90;;;;;;4989186;28;20502;-62
2023/07/28 05:54:15;;;;;;;4.67;4.13;;;18.30;99.90;;;;;;4984796;28;20458;-63
2023/07/28 05:56:42;;;;;;;6.23;5.63;;;18.20;99.90;;;;;;4988439;28;20251;-64
2023/07/28 05:59:09;;;;;;;6.83;4.97;;;18.20;99.90;;;;;;4987248;28;20203;-66
2023/07/28 06:01:38;;;;;;;8.90;6.43;;;18.30;99.90;;;;;;4985989;28;20196;-63
2023/07/28 06:04:05;;;;;;;8.67;6.03;;;18.40;99.90;;;;;;4993135;28;20203;-63
2023/07/28 06:06:32;;;;;;;9.43;8.07;;;18.40;99.90;;;;;;4990871;28;20345;-65
2023/07/28 06:08:59;;;;;;;16.23;6.63;;;18.40;99.90;;;;;;4990974;28;20254;-66
2023/07/28 06:11:26;;;;;;;5.37;4.37;;;18.50;99.90;;;;;;4988416;28;20200;-67
2023/07/28 06:13:53;;;;;;;4.73;4.30;;;18.40;99.90;;;;;;4988799;28;20200;-65
2023/07/28 06:16:20;;;;;;;3.33;2.80;;;18.30;99.90;;;;;;4990745;28;20219;-64
2023/07/28 06:18:48;;;;;;;2.70;2.60;;;18.30;99.90;;;;;;4990824;28;20670;-62
2023/07/28 06:21:15;;;;;;;2.83;2.63;;;18.20;99.90;;;;;;4987254;28;20621;-62
2023/07/28 06:23:42;;;;;;;2.23;1.83;;;18.20;99.90;;;;;;4990460;28;20250;-68
2023/07/28 06:26:09;;;;;;;2.03;1.93;;;18.20;99.90;;;;;;4990927;28;20245;-65
2023/07/28 06:28:37;;;;;;;2.17;2.07;;;18.20;99.90;;;;;;4989090;28;20578;-62
2023/07/28 06:31:04;;;;;;;2.07;1.97;;;18.30;99.90;;;;;;4984180;28;20200;-62
2023/07/28 06:33:31;;;;;;;4.70;1.97;;;18.40;99.90;;;;;;4989043;28;20234;-62
2023/07/28 06:36:00;;;;;;;2.50;2.30;;;18.50;99.90;;;;;;4987278;28;20258;-65
2023/07/28 06:38:27;;;;;;;3.90;2.00;;;18.80;99.90;;;;;;4990934;28;20231;-64
2023/07/28 06:40:55;;;;;;;2.37;2.20;;;19.00;99.90;;;;;;4987277;28;20207;-64
2023/07/28 06:43:22;;;;;;;3.57;2.40;;;19.20;99.90;;;;;;4989947;28;20580;-67
2023/07/28 06:45:52;;;;;;;3.67;2.23;;;19.30;99.90;;;;;;4989236;28;20200;-65
2023/07/28 06:48:19;;;;;;;2.23;2.03;;;19.30;99.90;;;;;;4989355;28;20954;-59
2023/07/28 06:50:46;;;;;;;2.67;1.73;;;19.30;99.90;;;;;;4990407;28;20211;-60
2023/07/28 06:53:14;;;;;;;3.07;2.07;;;19.10;99.90;;;;;;4985967;28;20259;-62
2023/07/28 06:55:41;;;;;;;2.93;2.33;;;19.00;99.90;;;;;;4989393;28;20219;-61
2023/07/28 06:58:09;;;;;;;2.30;2.10;;;19.00;99.90;;;;;;4992106;28;20283;-64
2023/07/28 07:00:36;;;;;;;3.17;1.87;;;18.90;99.90;;;;;;4988450;28;20283;-63
2023/07/28 07:03:03;;;;;;;3.80;2.20;;;18.90;99.90;;;;;;4988093;28;20200;-62
2023/07/28 07:05:30;;;;;;;2.13;2.03;;;18.90;99.90;;;;;;4990638;28;20662;-66
2023/07/28 07:07:57;;;;;;;3.70;1.90;;;18.90;99.90;;;;;;4989945;28;20220;-63
2023/07/28 07:10:26;;;;;;;2.90;2.70;;;19.00;99.90;;;;;;4989530;28;20208;-61
2023/07/28 07:12:53;;;;;;;2.50;1.57;;;19.20;99.90;;;;;;4991065;28;20279;-61
2023/07/28 07:15:20;;;;;;;1.93;1.83;;;18.70;99.90;;;;;;4993995;28;20223;-66
2023/07/28 07:17:47;;;;;;;4.13;1.93;;;19.30;99.90;;;;;;4994264;28;20219;-64
2023/07/28 07:20:15;;;;;;;1.83;1.73;;;19.60;99.90;;;;;;4993536;28;20212;-67
2023/07/28 07:22:42;;;;;;;2.33;1.43;;;20.40;99.90;;;;;;4994474;28;20204;-67
2023/07/28 07:25:09;;;;;;;2.33;2.13;;;21.40;99.90;;;;;;4992790;28;20706;-66
2023/07/28 07:27:37;;;;;;;1.70;1.60;;;21.90;99.90;;;;;;4991281;28;20283;-66
2023/07/28 07:30:05;;;;;;;1.43;1.33;;;22.10;99.90;;;;;;4990090;28;20219;-66
2023/07/28 07:32:34;;;;;;;2.40;1.30;;;21.90;99.90;;;;;;4994690;28;20204;-66
2023/07/28 07:35:01;;;;;;;2.63;1.80;;;21.60;99.90;;;;;;4984542;28;20208;-65
2023/07/28 07:37:28;;;;;;;2.67;1.67;;;21.40;99.90;;;;;;4992353;28;20227;-64
2023/07/28 07:39:55;;;;;;;5.13;1.87;;;21.30;99.90;;;;;;4993447;28;20638;-64
2023/07/28 07:42:22;;;;;;;3.83;1.70;;;21.10;99.90;;;;;;4992547;28;20204;-65
2023/07/28 07:44:51;;;;;;;2.13;1.93;;;21.10;99.90;;;;;;4987864;28;20204;-65
2023/07/28 07:47:18;;;;;;;1.93;1.83;;;21.20;99.90;;;;;;4993836;28;20573;-65
2023/07/28 07:49:45;;;;;;;2.00;1.80;;;21.20;99.90;;;;;;4986600;28;20211;-66
2023/07/28 07:52:12;;;;;;;1.63;1.47;;;21.10;99.90;;;;;;4991205;28;20740;-67
2023/07/28 07:54:39;;;;;;;2.30;2.10;;;21.00;99.90;;;;;;4986997;28;20773;-63
2023/07/28 07:57:07;;;;;;;2.87;1.80;;;20.90;99.90;;;;;;4988459;28;20580;-62
2023/07/28 07:59:34;;;;;;;1.37;1.23;;;20.80;99.90;;;;;;4989852;28;20784;-63
2023/07/28 08:02:02;;;;;;;3.57;1.60;;;20.70;99.90;;;;;;4992715;28;20662;-63
2023/07/28 08:04:31;;;;;;;1.80;1.70;;;20.60;99.90;;;;;;4992579;28;20290;-55
2023/07/28 08:06:58;;;;;;;1.97;1.40;;;20.60;99.90;;;;;;4992026;28;20219;-55
2023/07/28 08:09:25;;;;;;;3.70;2.10;;;20.60;99.90;;;;;;4993379;28;20688;-55
2023/07/28 08:11:52;;;;;;;3.07;2.83;;;20.60;99.90;;;;;;4988217;28;20627;-55
2023/07/28 08:14:19;;;;;;;2.00;1.90;;;20.80;99.90;;;;;;4993312;28;20211;-55
2023/07/28 08:16:46;;;;;;;2.17;1.97;;;21.00;99.90;;;;;;4993057;28;20256;-55
2023/07/28 08:19:15;;;;;;;1.97;1.87;;;21.30;99.90;;;;;;4993742;28;20734;-55
2023/07/28 08:21:42;;;;;;;2.23;1.37;;;21.60;99.90;;;;;;4992657;28;20258;-56
2023/07/28 08:24:09;;;;;;;1.33;1.33;;;22.10;99.90;;;;;;4986154;28;20215;-56
2023/07/28 08:26:36;;;;;;;2.00;1.63;;;22.40;99.90;;;;;;4988781;28;21012;-55
2023/07/28 08:29:03;;;;;;;2.10;1.90;;;22.70;99.90;;;;;;4991355;28;20262;-55
2023/07/28 08:31:30;;;;;;;2.10;1.60;;;22.80;99.90;;;;;;4992677;28;20211;-56
2023/07/28 08:33:56;;;;;;;2.37;2.17;;;23.10;99.90;;;;;;4993362;28;20717;-55
2023/07/28 08:36:25;;;;;;;2.60;1.70;;;23.60;99.90;;;;;;4993938;28;20224;-56
2023/07/28 08:38:52;;;;;;;1.90;1.80;;;23.80;99.90;;;;;;4994002;28;20752;-56
2023/07/28 08:41:19;;;;;;;1.57;1.40;;;23.80;99.90;;;;;;4993303;28;20203;-56
2023/07/28 08:43:46;;;;;;;2.77;1.67;;;23.70;99.90;;;;;;4993694;28;20204;-56
2023/07/28 08:46:13;;;;;;;1.57;1.40;;;23.90;99.90;;;;;;4994046;28;20203;-56
2023/07/28 08:48:40;;;;;;;5.50;1.93;;;24.30;99.90;;;;;;4993789;28;20204;-55
2023/07/28 08:51:08;;;;;;;1.90;1.80;;;24.20;99.90;;;;;;4993285;28;20254;-56
2023/07/28 08:53:36;;;;;;;2.20;1.87;;;24.40;99.90;;;;;;4993521;28;20208;-55
2023/07/28 08:56:04;;;;;;;2.23;2.07;;;24.50;99.90;;;;;;4993573;28;20769;-56
2023/07/28 08:58:31;;;;;;;2.77;1.63;;;24.40;99.90;;;;;;4993705;28;20306;-56
2023/07/28 09:01:00;;;;;;;2.43;2.23;;;24.20;99.90;;;;;;4992876;28;20270;-55
2023/07/28 09:03:28;;;;;;;2.37;2.17;;;24.20;99.90;;;;;;4993178;28;20199;-56
2023/07/28 09:06:00;;;;;;;2.33;2.00;;;25.30;99.90;;;;;;4993449;28;20577;-56
2023/07/28 09:08:27;;;;;;;2.97;1.87;;;26.40;99.90;;;;;;4993262;28;20231;-56
2023/07/28 09:10:56;;;;;;;1.67;1.67;;;27.00;99.90;;;;;;4992942;28;20204;-56
2023/07/28 09:13:23;;;;;;;1.65;1.55;;;28.00;99.90;;;;;;4993394;28;20208;-55
2023/07/28 09:15:50;;;;;;;2.58;1.77;;;28.80;99.90;;;;;;4993443;28;20766;-55
2023/07/28 09:18:18;;;;;;;1.88;1.60;;;29.50;99.90;;;;;;4993200;28;20729;-57
2023/07/28 09:20:45;;;;;;;1.90;1.63;;;29.80;99.90;;;;;;4992758;28;20263;-56
2023/07/28 09:23:16;;;;;;;2.25;1.67;;;29.70;99.90;;;;;;4992756;28;20239;-56
2023/07/28 09:25:43;;;;;;;1.73;1.67;;;28.90;99.90;;;;;;4993150;28;20195;-56
2023/07/28 09:28:11;;;;;;;1.95;1.85;;;28.10;99.90;;;;;;4993074;28;20235;-56
2023/07/28 09:30:47;;;;;;;2.13;1.63;;;27.30;99.90;;;;;;4992654;28;20230;-56
2023/07/28 09:33:14;;;;;;;2.30;2.10;;;26.80;99.90;;;;;;4985215;28;20195;-56
2023/07/28 09:35:51;;;;;;;2.22;2.13;;;26.30;99.90;;;;;;4992540;28;20622;-56
2023/07/28 09:38:19;;;;;;;2.42;1.88;;;26.00;99.90;;;;;;4992859;28;20219;-56
2023/07/28 09:40:47;;;;;;;2.08;1.95;;;25.60;99.90;;;;;;4991979;28;20204;-56
2023/07/28 09:43:16;;;;;;;2.08;1.88;;;25.40;99.90;;;;;;4990142;28;20744;-56
2023/07/28 09:45:44;;;;;;;2.17;1.97;;;25.20;99.90;;;;;;4992585;28;20210;-56
2023/07/28 09:48:12;;;;;;;1.85;1.85;;;25.10;99.90;;;;;;4992731;28;20278;-55
2023/07/28 09:50:41;;;;;;;1.67;1.67;;;25.00;99.90;;;;;;4992587;28;20651;-56
2023/07/28 09:53:10;;;;;;;3.95;1.77;;;24.70;99.90;;;;;;4990497;28;20274;-56
2023/07/28 09:55:40;;;;;;;2.00;1.83;;;24.50;99.90;;;;;;4992397;28;20242;-56
2023/07/28 09:58:11;;;;;;;1.87;1.77;;;24.30;99.90;;;;;;4992532;28;20710;-55
2023/07/28 10:00:41;;;;;;;2.17;2.07;;;24.30;99.90;;;;;;4992695;28;20210;-55
2023/07/28 10:03:09;;;;;;;2.10;1.90;;;24.10;99.90;;;;;;4988841;28;20255;-55
2023/07/28 10:05:36;;;;;;;2.10;1.93;;;24.00;99.90;;;;;;4988260;28;20640;-56
2023/07/28 10:08:05;;;;;;;2.70;2.53;;;24.00;99.90;;;;;;4992315;28;20701;-55
2023/07/28 10:10:33;;;;;;;1.60;1.60;;;24.20;99.90;;;;;;4992513;28;20666;-55
2023/07/28 10:13:00;;;;;;;2.43;2.10;;;24.40;99.90;;;;;;4991355;28;20640;-55
2023/07/28 10:15:32;;;;;;;2.07;1.97;;;24.60;99.90;;;;;;4991597;28;20204;-55
2023/07/28 10:18:01;;;;;;;2.30;2.10;;;24.90;99.90;;;;;;4992177;28;20220;-55
2023/07/28 10:20:29;;;;;;;2.30;2.20;;;25.50;99.90;;;;;;4992541;28;20629;-56
2023/07/28 10:23:04;;;;;;;1.67;1.60;;;26.30;99.90;;;;;;4991205;28;20205;-55
2023/07/28 10:25:34;;;;;;;2.08;1.90;;;27.50;99.90;;;;;;4991969;28;20268;-56
2023/07/28 10:28:02;;;;;;;1.95;1.90;;;28.40;99.90;;;;;;4992196;28;20594;-56
2023/07/28 10:30:29;;;;;;;1.90;1.80;;;29.30;99.90;;;;;;4991506;28;20288;-55
2023/07/28 10:32:57;;;;;;;2.30;2.17;;;29.80;99.90;;;;;;4991098;28;20337;-56
2023/07/28 10:35:29;;;;;;;2.00;1.90;;;30.00;99.90;;;;;;4991689;28;20285;-55
2023/07/28 10:37:56;;;;;;;1.90;1.67;;;29.80;99.90;;;;;;4992027;28;20753;-55
2023/07/28 10:40:30;;;;;;;1.60;1.50;;;29.80;99.90;;;;;;4992226;28;20637;-56
2023/07/28 10:42:58;;;;;;;2.10;2.00;;;30.00;99.90;;;;;;4990714;28;20215;-56
2023/07/28 10:45:28;;;;;;;2.08;1.70;;;29.90;99.90;;;;;;4991806;28;20613;-55
2023/07/28 10:47:56;;;;;;;2.55;1.65;;;29.40;99.90;;;;;;4996071;28;20212;-56
2023/07/28 10:50:25;;;;;;;2.50;1.98;;;29.10;99.90;;;;;;4994200;28;20464;-63
2023/07/28 10:52:52;;;;;;;3.25;1.95;;;28.60;99.90;;;;;;4994860;28;20203;-65
2023/07/28 10:55:21;;;;;;;2.47;1.75;;;28.80;99.90;;;;;;4993626;28;20207;-66
2023/07/28 10:57:53;;;;;;;2.55;2.45;;;28.90;99.90;;;;;;4995675;28;20224;-68
2023/07/28 11:00:21;;;;;;;2.10;2.00;;;29.00;99.90;;;;;;4994067;28;20254;-66
2023/07/28 11:02:52;;;;;;;1.67;1.58;;;29.10;99.90;;;;;;4996778;28;20641;-65
2023/07/28 11:05:22;;;;;;;1.50;1.50;;;29.40;99.90;;;;;;4989935;28;20275;-63
2023/07/28 11:07:55;;;;;;;1.55;1.45;;;29.50;99.90;;;;;;4992781;28;20215;-64
2023/07/28 11:10:23;;;;;;;1.90;1.80;;;29.40;99.90;;;;;;4995402;28;20208;-63
2023/07/28 11:12:54;;;;;;;1.88;1.50;;;29.30;99.90;;;;;;4994442;28;20697;-64
2023/07/28 11:15:21;;;;;;;2.03;1.92;;;29.10;99.90;;;;;;4995570;28;20242;-64
2023/07/28 11:17:49;;;;;;;1.92;1.83;;;29.00;99.90;;;;;;4995154;28;20706;-63
2023/07/28 11:20:17;;;;;;;1.88;1.77;;;28.80;99.90;;;;;;4995225;28;20670;-64
2023/07/28 11:22:45;;;;;;;1.58;1.58;;;28.80;99.90;;;;;;4984109;28;20674;-65
2023/07/28 11:25:13;;;;;;;1.77;1.77;;;28.50;99.90;;;;;;4983239;28;20215;-63
2023/07/28 11:27:41;;;;;;;2.70;1.83;;;28.30;99.90;;;;;;4986184;28;20651;-64
2023/07/28 11:30:10;;;;;;;1.23;1.17;;;27.90;99.90;;;;;;4995164;28;20207;-65
2023/07/28 11:32:38;;;;;;;2.10;2.10;;;27.60;99.90;;;;;;4994365;28;20236;-63
2023/07/28 11:35:07;;;;;;;1.88;1.77;;;27.50;99.90;;;;;;4993538;28;20208;-63
2023/07/28 11:37:35;;;;;;;2.05;2.05;;;27.60;99.90;;;;;;4993867;28;20224;-64
2023/07/28 11:40:06;;;;;;;1.73;1.73;;;27.60;99.90;;;;;;4995015;28;20335;-60
2023/07/28 11:42:35;;;;;;;2.38;1.73;;;27.70;99.90;;;;;;4994289;28;20215;-60
2023/07/28 11:45:04;;;;;;;2.30;2.20;;;27.70;99.90;;;;;;4995538;28;20206;-65
2023/07/28 11:47:31;;;;;;;2.17;2.08;;;27.70;99.90;;;;;;4987368;28;20360;-67
2023/07/28 11:50:00;;;;;;;1.58;1.48;;;27.60;99.90;;;;;;4993679;28;20200;-55
2023/07/28 11:52:31;;;;;;;2.33;2.22;;;27.60;99.90;;;;;;4994072;28;20547;-55
2023/07/28 11:54:59;;;;;;;2.17;2.00;;;27.60;99.90;;;;;;4994792;28;20274;-55
2023/07/28 11:57:27;;;;;;;2.10;2.00;;;27.70;99.90;;;;;;4986728;28;20699;-55
2023/07/28 11:59:56;;;;;;;2.85;1.80;;;27.60;99.90;;;;;;4992922;28;20629;-55
2023/07/28 12:02:27;;;;;;;1.92;1.77;;;27.80;99.90;;;;;;4993721;28;20199;-55
2023/07/28 12:04:56;;;;;;;1.90;1.73;;;27.80;99.90;;;;;;4994384;28;20225;-55
2023/07/28 12:07:29;;;;;;;1.52;1.52;;;27.70;99.90;;;;;;4988316;28;20226;-68
2023/07/28 12:09:59;;;;;;;1.77;1.75;;;27.60;99.90;;;;;;4992676;28;20206;-62
2023/07/28 12:12:28;;;;;;;3.28;3.08;;;27.50;99.90;;;;;;4992920;28;20307;-63
2023/07/28 12:14:59;;;;;;;7.78;6.25;;;27.60;99.90;;;;;;4992737;28;20200;-62
2023/07/28 12:17:28;;;;;;;3.65;3.33;;;27.30;99.90;;;;;;4974623;28;20230;-56
2023/07/28 12:20:10;;;;;;;3.00;2.90;;;27.20;99.90;;;;;;4985381;28;20677;-55
2023/07/28 12:22:37;;;;;;;3.22;3.03;;;27.40;99.90;;;;;;4992189;28;20208;-55
2023/07/28 12:25:05;;;;;;;1.90;1.90;;;27.20;99.90;;;;;;4992802;28;20625;-56
2023/07/28 12:27:32;;;;;;;2.10;2.00;;;27.20;99.90;;;;;;4992785;28;20242;-56
2023/07/28 12:30:01;;;;;;;2.78;2.05;;;27.30;99.90;;;;;;4990348;28;20231;-55
2023/07/28 12:32:28;;;;;;;1.70;1.70;;;27.30;99.90;;;;;;4991565;28;20577;-56
2023/07/28 12:34:55;;;;;;;2.38;2.28;;;27.30;99.90;;;;;;4992204;28;20199;-55
2023/07/28 12:37:22;;;;;;;1.77;1.77;;;27.40;99.90;;;;;;4974475;28;20228;-55
2023/07/28 12:39:50;;;;;;;2.20;2.10;;;27.40;99.90;;;;;;4974580;28;20682;-55
2023/07/28 12:42:18;;;;;;;1.98;1.85;;;27.40;99.90;;;;;;4977649;28;20203;-55
2023/07/28 12:44:45;;;;;;;2.03;2.00;;;27.50;99.90;;;;;;4993753;28;20208;-55
2023/07/28 12:47:13;;;;;;;2.13;2.03;;;27.70;99.90;;;;;;4993911;28;20254;-55
2023/07/28 12:49:40;;;;;;;2.25;2.05;;;27.90;99.90;;;;;;4993809;28;20212;-56
2023/07/28 12:52:09;;;;;;;2.25;2.15;;;27.90;99.90;;;;;;4993047;28;20270;-55